Freeport, Iowa
Current Conditions -  °F | °C
As of 9:35 AM on Friday 19 Dec 2014 (Local Time) from KDEH Reporting Station
Overcast Overcast  
Wind Chill: 18°   Ceiling: 7500
Heat Index: 25°   Visibility: 10mi
Dew Point: 19°   Wind: 6mph
Humidity: 80%   Direction: 160°SSE
Pressure: 30.26"   Gusts: NA
Location:  43.3626°N, 91.8164°W
Report Text: KDEH 191535Z AUTO 16005KT 10SM FEW026 OVC075 M04/M07 A3026 RMK AO2
Loading
Personal Weather Stations






























Interactive Weather Map New forecast layout! Learn more

10-Day Weather Forecast

Advertisements
Track Severe Weather on mobile